Current Weather

Lytton

Lytton, Canada (CWLY)

Report from: Sunday, September 25, 2022 8:00 PM PDT
Current time: Sunday, September 25, 2022 9:05 PM PDT

Nearby weather
Weather history
Weather forecast

Temperature19.0°C (66.2°F)
Dew point10.0°C (50.0°F)
Winds 2 kts (1 m/s, 2.3 mph) South-Southeast (150°)
Visibility9 mi. (14.5 km)
Clouds Sky clear
Altimeter30.06 in.Hg (1018 mB)
Relative humidity56 %
Density altitude486 ft. (148 m)
Sea-level pressure101.9 kPa (1019 mB, 30.08 in.Hg)
Remarks Fully automated report
Flight conditions Visual Meteorological Conditions
Raw dataCWLY 260300Z AUTO 15002KT 9SM CLR 19/10 A3006 RMK SLP185 DENSITY ALT 1200FT
An error has occurred. This application may no longer respond until reloaded. Reload 🗙